createdAt,value
2018-09-30T00:00:20.038Z,61.93
2018-09-30T00:00:58.149Z,57.03
2018-09-30T00:01:36.149Z,57.47
2018-09-30T00:02:14.096Z,58.43
2018-09-30T00:02:53.618Z,62.00
2018-09-30T00:03:33.940Z,63.40
2018-09-30T00:04:13.305Z,58.63
2018-09-30T00:04:51.434Z,53.70
2018-09-30T00:05:30.122Z,78.47
2018-09-30T00:06:08.328Z,53.40
2018-09-30T00:06:47.221Z,61.03
2018-09-30T00:07:26.618Z,69.07
2018-09-30T00:08:04.827Z,67.57
2018-09-30T00:08:45.042Z,59.13
2018-09-30T00:09:26.762Z,57.87
2018-09-30T00:10:06.741Z,58.93
2018-09-30T00:10:46.776Z,62.10
2018-09-30T00:11:25.615Z,54.17
2018-09-30T00:12:06.026Z,57.80
2018-09-30T00:12:53.530Z,54.83
2018-09-30T00:13:36.598Z,61.00
2018-09-30T00:14:22.644Z,63.75
2018-09-30T00:15:09.656Z,66.13
2018-09-30T00:15:47.642Z,61.20
2018-09-30T00:16:25.545Z,53.23
2018-09-30T00:17:04.549Z,55.13
2018-09-30T00:17:52.568Z,56.90
2018-09-30T00:18:37.226Z,56.00
2018-09-30T00:19:15.507Z,58.67
2018-09-30T00:19:53.949Z,56.53
2018-09-30T00:20:32.075Z,56.60
2018-09-30T00:21:10.370Z,65.03
2018-09-30T00:21:48.580Z,57.87
2018-09-30T00:22:27.279Z,52.70
2018-09-30T00:23:05.450Z,60.03
2018-09-30T00:23:47.515Z,58.23
2018-09-30T00:24:29.488Z,55.33
2018-09-30T00:25:13.410Z,56.53
2018-09-30T00:25:58.538Z,52.10
2018-09-30T00:26:40.641Z,58.60
2018-09-30T00:27:20.594Z,55.67
2018-09-30T00:27:59.063Z,52.63
2018-09-30T00:28:37.749Z,56.60
2018-09-30T00:29:15.783Z,51.27
2018-09-30T00:29:53.822Z,63.13
2018-09-30T00:30:32.057Z,56.90
2018-09-30T00:31:10.235Z,57.57
2018-09-30T00:31:48.474Z,59.17
2018-09-30T00:32:27.435Z,53.50
2018-09-30T00:33:05.644Z,69.40
2018-09-30T00:33:48.674Z,58.40
2018-09-30T00:34:32.351Z,57.47
2018-09-30T00:35:12.721Z,55.33
2018-09-30T00:36:03.195Z,60.73
2018-09-30T00:36:45.584Z,62.73
2018-09-30T00:37:24.631Z,59.23
2018-09-30T00:38:02.582Z,64.17
2018-09-30T00:38:40.584Z,63.73
2018-09-30T00:39:18.792Z,54.50
2018-09-30T00:39:57.163Z,57.87
2018-09-30T00:40:35.336Z,54.13
2018-09-30T00:41:13.397Z,56.63
2018-09-30T00:41:51.506Z,52.97
2018-09-30T00:42:29.407Z,52.43
2018-09-30T00:43:07.544Z,54.23
2018-09-30T00:43:45.526Z,58.27
2018-09-30T00:44:23.608Z,56.93
2018-09-30T00:45:01.415Z,53.63
2018-09-30T00:45:39.469Z,52.80
2018-09-30T00:46:17.618Z,51.63
2018-09-30T00:46:56.213Z,67.17
2018-09-30T00:47:34.761Z,50.00
2018-09-30T00:48:13.070Z,51.80
2018-09-30T00:48:59.848Z,51.53
2018-09-30T00:49:50.480Z,50.77
2018-09-30T00:50:28.690Z,54.63
2018-09-30T00:51:12.674Z,56.33
2018-09-30T00:51:51.010Z,54.40
2018-09-30T00:52:29.808Z,63.40
2018-09-30T00:53:07.844Z,62.13
2018-09-30T00:53:49.853Z,52.93
2018-09-30T00:54:36.365Z,52.77
2018-09-30T00:55:15.103Z,56.73
2018-09-30T00:55:53.120Z,55.90
2018-09-30T00:56:31.095Z,49.70
2018-09-30T00:57:09.063Z,52.33
2018-09-30T00:57:47.328Z,51.17
2018-09-30T00:58:25.402Z,51.43
2018-09-30T00:59:03.322Z,54.00
2018-09-30T00:59:42.077Z,49.20
2018-09-30T01:00:21.784Z,52.73
2018-09-30T01:00:59.877Z,52.40
2018-09-30T01:01:38.085Z,48.53
2018-09-30T01:02:17.019Z,60.95
2018-09-30T01:02:55.095Z,51.50
2018-09-30T01:03:33.195Z,53.47
2018-09-30T01:04:11.400Z,51.70
2018-09-30T01:04:49.265Z,57.80
2018-09-30T01:05:27.397Z,53.40
2018-09-30T01:06:05.304Z,48.03
2018-09-30T01:06:43.226Z,54.57
2018-09-30T01:07:21.140Z,49.50
2018-09-30T01:07:59.042Z,46.97
2018-09-30T01:08:36.908Z,52.33
2018-09-30T01:09:17.399Z,54.90
2018-09-30T01:09:55.533Z,50.33
2018-09-30T01:10:33.403Z,53.10
2018-09-30T01:11:11.854Z,51.10
2018-09-30T01:11:49.880Z,53.77
2018-09-30T01:12:27.725Z,48.20
2018-09-30T01:13:05.593Z,49.07
2018-09-30T01:13:43.373Z,51.60
2018-09-30T01:14:21.231Z,54.20
2018-09-30T01:14:59.178Z,47.77
2018-09-30T01:15:38.227Z,49.43
2018-09-30T01:16:16.768Z,50.65
2018-09-30T01:16:55.683Z,53.27
2018-09-30T01:17:33.520Z,53.93
2018-09-30T01:18:12.326Z,53.20
2018-09-30T01:18:50.212Z,53.27
2018-09-30T01:19:28.300Z,54.77
2018-09-30T01:20:06.847Z,49.20
2018-09-30T01:20:44.774Z,53.20
2018-09-30T01:21:22.673Z,50.30
2018-09-30T01:22:00.815Z,49.47
2018-09-30T01:22:39.257Z,46.80
2018-09-30T01:23:17.531Z,48.13
2018-09-30T01:23:55.729Z,52.10
2018-09-30T01:24:34.021Z,48.43
2018-09-30T01:25:12.257Z,48.93
2018-09-30T01:25:51.508Z,47.37
2018-09-30T01:26:29.825Z,47.60
2018-09-30T01:27:07.947Z,49.10
2018-09-30T01:27:46.000Z,48.77
2018-09-30T01:28:24.013Z,48.90
2018-09-30T01:29:02.007Z,52.23
2018-09-30T01:29:39.800Z,52.67
2018-09-30T01:30:18.311Z,53.03
2018-09-30T01:30:56.296Z,52.77
2018-09-30T01:31:34.171Z,51.60
2018-09-30T01:32:12.087Z,55.60
2018-09-30T01:32:50.945Z,57.03
2018-09-30T01:33:28.881Z,47.33
2018-09-30T01:34:06.793Z,54.07
2018-09-30T01:34:44.692Z,56.97
2018-09-30T01:35:22.715Z,55.37
2018-09-30T01:36:00.845Z,48.30
2018-09-30T01:36:39.018Z,48.33
2018-09-30T01:37:16.977Z,49.17
2018-09-30T01:37:54.887Z,52.93
2018-09-30T01:38:32.764Z,51.87
2018-09-30T01:39:11.668Z,48.67
2018-09-30T01:39:50.968Z,59.93
2018-09-30T01:40:28.929Z,50.33
2018-09-30T01:41:08.008Z,53.60
2018-09-30T01:41:48.138Z,49.00
2018-09-30T01:42:26.060Z,51.43
2018-09-30T01:43:03.901Z,44.40
2018-09-30T01:43:41.962Z,47.33
2018-09-30T01:44:19.786Z,48.03
2018-09-30T01:44:57.600Z,49.87
2018-09-30T01:45:35.471Z,49.20
2018-09-30T01:46:13.345Z,47.87
2018-09-30T01:46:51.182Z,44.80
2018-09-30T01:47:29.043Z,46.77
2018-09-30T01:48:07.072Z,55.33
2018-09-30T01:48:45.033Z,46.33
2018-09-30T01:49:23.765Z,48.53
2018-09-30T01:50:01.748Z,45.93
2018-09-30T01:50:39.665Z,46.73
2018-09-30T01:51:18.424Z,55.50
2018-09-30T01:52:05.070Z,50.43
2018-09-30T01:52:55.750Z,51.50
2018-09-30T01:53:33.709Z,50.50
2018-09-30T01:54:11.581Z,56.57
2018-09-30T01:54:49.682Z,47.73
2018-09-30T01:55:27.462Z,48.43
2018-09-30T01:56:05.362Z,50.30
2018-09-30T01:56:43.443Z,48.83
2018-09-30T01:57:22.630Z,48.43
2018-09-30T01:58:00.479Z,50.47
2018-09-30T01:58:38.394Z,47.87
2018-09-30T01:59:16.400Z,47.90
2018-09-30T01:59:54.206Z,46.40
2018-09-30T02:00:32.079Z,55.23
2018-09-30T02:01:09.973Z,46.43
2018-09-30T02:01:47.801Z,49.60
2018-09-30T02:02:25.750Z,55.70
2018-09-30T02:03:03.709Z,60.90
2018-09-30T02:03:41.445Z,46.93
2018-09-30T02:04:19.315Z,48.63
2018-09-30T02:04:58.325Z,47.77
2018-09-30T02:05:36.161Z,52.70
2018-09-30T02:06:13.986Z,55.43
2018-09-30T02:06:52.203Z,54.13
2018-09-30T02:07:30.122Z,49.43
2018-09-30T02:08:09.163Z,57.57
2018-09-30T02:08:48.001Z,54.90
2018-09-30T02:09:27.862Z,51.73
2018-09-30T02:10:05.732Z,49.20
2018-09-30T02:10:44.989Z,61.23
2018-09-30T02:11:23.010Z,54.43
2018-09-30T02:12:01.606Z,65.40
2018-09-30T02:12:39.602Z,52.23
2018-09-30T02:13:17.510Z,60.03
2018-09-30T02:13:55.445Z,50.70
2018-09-30T02:14:34.043Z,56.43
2018-09-30T02:15:12.093Z,48.83
2018-09-30T02:15:49.932Z,53.17
2018-09-30T02:16:29.912Z,54.27
2018-09-30T02:17:09.008Z,59.37
2018-09-30T02:17:47.058Z,48.27
2018-09-30T02:18:25.035Z,49.17
2018-09-30T02:19:02.955Z,47.20
2018-09-30T02:19:40.844Z,48.87
2018-09-30T02:20:18.641Z,53.80
2018-09-30T02:20:56.495Z,52.00
2018-09-30T02:21:34.461Z,55.93
2018-09-30T02:22:12.497Z,55.23
2018-09-30T02:22:50.308Z,61.03
2018-09-30T02:23:28.297Z,51.13
2018-09-30T02:24:06.923Z,53.07
2018-09-30T02:24:44.777Z,53.70
2018-09-30T02:25:22.625Z,63.17
2018-09-30T02:26:01.694Z,68.70
2018-09-30T02:26:39.469Z,61.10
2018-09-30T02:27:17.402Z,54.13
2018-09-30T02:27:55.224Z,52.63
2018-09-30T02:28:33.193Z,57.70
2018-09-30T02:29:11.236Z,62.53
2018-09-30T02:29:49.057Z,60.07
2018-09-30T02:30:27.021Z,66.80
2018-09-30T02:31:05.834Z,60.00
2018-09-30T02:31:43.702Z,67.97
2018-09-30T02:32:21.707Z,56.40
2018-09-30T02:32:59.681Z,64.77
2018-09-30T02:33:37.558Z,56.83
2018-09-30T02:34:15.421Z,57.87
2018-09-30T02:34:53.456Z,70.63
2018-09-30T02:35:31.533Z,64.53
2018-09-30T02:36:09.412Z,63.87
2018-09-30T02:36:47.331Z,62.43
2018-09-30T02:37:25.349Z,53.87
2018-09-30T02:38:18.368Z,62.53
2018-09-30T02:38:57.553Z,73.80
2018-09-30T02:39:36.556Z,67.87
2018-09-30T02:40:14.555Z,79.23
2018-09-30T02:40:52.437Z,58.07
2018-09-30T02:41:30.266Z,74.60
2018-09-30T02:42:08.126Z,67.13
2018-09-30T02:42:50.217Z,70.27
2018-09-30T02:43:28.011Z,65.33
2018-09-30T02:44:05.861Z,68.70
2018-09-30T02:44:44.242Z,60.20
2018-09-30T02:45:22.254Z,64.30
2018-09-30T02:46:00.339Z,74.27
2018-09-30T02:46:39.177Z,74.63
2018-09-30T02:47:17.674Z,86.47
2018-09-30T02:47:55.454Z,73.10
2018-09-30T02:48:33.280Z,77.57
2018-09-30T02:49:11.159Z,83.07
2018-09-30T02:49:52.283Z,77.83
2018-09-30T02:50:30.382Z,84.30
2018-09-30T02:51:08.362Z,78.37
2018-09-30T02:51:46.354Z,80.63
2018-09-30T02:52:24.164Z,69.03
2018-09-30T02:53:02.020Z,70.60
2018-09-30T02:53:40.208Z,65.73
2018-09-30T02:54:18.095Z,80.73
2018-09-30T02:54:55.937Z,69.10
2018-09-30T02:55:33.834Z,61.43
2018-09-30T02:56:11.868Z,61.53
2018-09-30T02:56:49.969Z,72.70
2018-09-30T02:57:27.825Z,65.67
2018-09-30T02:58:06.721Z,61.27
2018-09-30T02:58:44.570Z,64.20
2018-09-30T02:59:23.987Z,68.23
2018-09-30T03:00:02.396Z,69.27
2018-09-30T03:00:40.289Z,67.23
2018-09-30T03:01:19.439Z,69.87
2018-09-30T03:01:57.291Z,66.77
2018-09-30T03:02:35.516Z,69.33
2018-09-30T03:03:15.400Z,92.50
2018-09-30T03:03:53.505Z,67.63
2018-09-30T03:04:31.631Z,78.33
2018-09-30T03:05:09.670Z,69.60
2018-09-30T03:05:47.605Z,71.10
2018-09-30T03:06:29.502Z,74.77
2018-09-30T03:07:11.474Z,58.67
2018-09-30T03:07:53.554Z,68.87
2018-09-30T03:08:35.916Z,71.73
2018-09-30T03:09:18.828Z,75.90
2018-09-30T03:09:56.596Z,69.97
2018-09-30T03:10:34.758Z,70.17
2018-09-30T03:11:12.846Z,72.27
2018-09-30T03:11:50.825Z,66.37
2018-09-30T03:12:28.682Z,63.63
2018-09-30T03:13:06.973Z,62.67
2018-09-30T03:13:44.854Z,59.77
2018-09-30T03:14:22.795Z,65.37
2018-09-30T03:15:00.713Z,59.53
2018-09-30T03:15:38.586Z,57.93
2018-09-30T03:16:17.708Z,70.97
2018-09-30T03:16:55.561Z,55.77
2018-09-30T03:17:33.545Z,61.70
2018-09-30T03:18:11.482Z,58.53
2018-09-30T03:18:49.389Z,62.03
2018-09-30T03:19:27.256Z,54.50
2018-09-30T03:20:05.283Z,54.70
2018-09-30T03:20:44.471Z,59.40
2018-09-30T03:21:22.577Z,51.27
2018-09-30T03:22:00.478Z,51.80
2018-09-30T03:22:39.303Z,52.40
2018-09-30T03:23:17.206Z,51.43
2018-09-30T03:23:55.636Z,52.00
2018-09-30T03:24:33.732Z,69.43
2018-09-30T03:25:11.877Z,61.37
2018-09-30T03:25:49.974Z,59.20
2018-09-30T03:26:27.934Z,51.60
2018-09-30T03:27:06.078Z,54.53
2018-09-30T03:27:44.774Z,57.70
2018-09-30T03:28:22.766Z,62.27
2018-09-30T03:29:00.781Z,52.83
2018-09-30T03:29:38.872Z,52.87
2018-09-30T03:30:18.116Z,53.40
2018-09-30T03:30:57.010Z,59.83
2018-09-30T03:31:34.906Z,50.87
2018-09-30T03:32:12.734Z,55.80
2018-09-30T03:32:50.613Z,55.83
2018-09-30T03:33:28.597Z,57.37
2018-09-30T03:34:06.537Z,55.43
2018-09-30T03:34:44.408Z,52.87
2018-09-30T03:35:22.297Z,62.17
2018-09-30T03:36:00.115Z,52.37
2018-09-30T03:36:37.970Z,50.37
2018-09-30T03:37:16.817Z,52.17
2018-09-30T03:38:08.603Z,52.80
2018-09-30T03:38:46.440Z,52.90
2018-09-30T03:39:25.585Z,51.43
2018-09-30T03:40:03.557Z,54.30
2018-09-30T03:40:41.459Z,54.90
2018-09-30T03:41:19.351Z,51.93
2018-09-30T03:41:57.208Z,51.73
2018-09-30T03:42:35.199Z,53.23
2018-09-30T03:43:14.275Z,52.20
2018-09-30T03:43:52.354Z,53.63
2018-09-30T03:44:30.286Z,48.90
2018-09-30T03:45:08.417Z,54.30
2018-09-30T03:45:47.199Z,50.87
2018-09-30T03:46:25.223Z,53.80
2018-09-30T03:47:03.092Z,50.43
2018-09-30T03:47:41.010Z,52.13
2018-09-30T03:48:18.980Z,55.37
2018-09-30T03:48:56.995Z,50.40
2018-09-30T03:49:34.969Z,50.23
2018-09-30T03:50:14.263Z,52.00
2018-09-30T03:50:52.205Z,50.70
2018-09-30T03:51:30.006Z,60.23
2018-09-30T03:52:08.277Z,49.03
2018-09-30T03:52:47.467Z,51.93
2018-09-30T03:53:25.595Z,48.77
2018-09-30T03:54:03.570Z,54.73
2018-09-30T03:54:41.646Z,56.33
2018-09-30T03:55:19.599Z,47.80
2018-09-30T03:55:57.720Z,51.83
2018-09-30T03:56:35.704Z,50.97
2018-09-30T03:57:13.662Z,52.53
2018-09-30T03:57:51.686Z,51.57
2018-09-30T03:58:29.514Z,52.60
2018-09-30T03:59:07.390Z,46.83
2018-09-30T03:59:45.179Z,44.40
2018-09-30T04:00:22.996Z,47.97
2018-09-30T04:01:00.961Z,51.10
2018-09-30T04:01:39.058Z,47.30
2018-09-30T04:02:17.084Z,48.00
2018-09-30T04:02:54.977Z,49.47
2018-09-30T04:03:32.984Z,46.60
2018-09-30T04:04:10.909Z,47.33
2018-09-30T04:04:50.376Z,51.50
2018-09-30T04:05:28.243Z,61.00
2018-09-30T04:06:06.128Z,50.87
2018-09-30T04:06:44.952Z,45.83
2018-09-30T04:07:22.955Z,44.90
2018-09-30T04:08:01.142Z,46.60
2018-09-30T04:08:39.083Z,52.00
2018-09-30T04:09:17.200Z,53.27
2018-09-30T04:09:55.105Z,45.87
2018-09-30T04:10:33.208Z,49.03
2018-09-30T04:11:11.137Z,49.37
2018-09-30T04:11:49.050Z,49.37
2018-09-30T04:12:27.287Z,48.20
2018-09-30T04:13:05.169Z,48.87
2018-09-30T04:13:44.562Z,45.43
2018-09-30T04:14:22.920Z,43.40
2018-09-30T04:15:00.709Z,44.73
2018-09-30T04:15:38.766Z,44.93
2018-09-30T04:16:17.638Z,44.20
2018-09-30T04:16:55.581Z,48.40
2018-09-30T04:17:33.504Z,41.80
2018-09-30T04:18:12.946Z,49.77
2018-09-30T04:18:50.734Z,42.23
2018-09-30T04:19:28.548Z,42.50
2018-09-30T04:20:06.606Z,42.53
2018-09-30T04:20:44.668Z,49.57
2018-09-30T04:21:22.940Z,46.10
2018-09-30T04:22:00.889Z,46.90
2018-09-30T04:22:38.779Z,45.97
2018-09-30T04:23:16.629Z,43.00
2018-09-30T04:24:01.641Z,43.20
2018-09-30T04:24:39.453Z,45.93
2018-09-30T04:25:18.659Z,44.47
2018-09-30T04:25:56.777Z,45.10
2018-09-30T04:26:34.666Z,45.67
2018-09-30T04:27:14.141Z,44.73
2018-09-30T04:27:52.185Z,49.27
2018-09-30T04:28:30.063Z,39.07
2018-09-30T04:29:08.193Z,39.40
2018-09-30T04:29:46.028Z,42.57
2018-09-30T04:30:23.903Z,44.90
2018-09-30T04:31:01.886Z,44.77
2018-09-30T04:31:39.744Z,39.00
2018-09-30T04:32:17.628Z,37.23
2018-09-30T04:32:55.528Z,42.80
2018-09-30T04:33:33.410Z,41.00
2018-09-30T04:34:11.363Z,39.90
2018-09-30T04:34:49.136Z,37.70
2018-09-30T04:35:27.627Z,40.73
2018-09-30T04:36:05.477Z,39.77
2018-09-30T04:36:43.290Z,39.73
2018-09-30T04:37:21.195Z,45.93
2018-09-30T04:37:59.085Z,43.17
2018-09-30T04:38:36.961Z,45.83
2018-09-30T04:39:15.749Z,38.63
2018-09-30T04:39:53.615Z,38.40
2018-09-30T04:40:31.729Z,42.53
2018-09-30T04:41:09.940Z,41.93
2018-09-30T04:41:47.789Z,40.77
2018-09-30T04:42:26.851Z,51.80
2018-09-30T04:43:05.775Z,39.43
2018-09-30T04:43:43.728Z,43.80
2018-09-30T04:44:23.055Z,43.20
2018-09-30T04:45:01.042Z,45.57
2018-09-30T04:45:39.852Z,41.93
2018-09-30T04:46:17.649Z,38.97
2018-09-30T04:46:55.762Z,35.80
2018-09-30T04:47:34.778Z,39.40
2018-09-30T04:48:12.769Z,47.67
2018-09-30T04:48:50.706Z,42.47
2018-09-30T04:49:28.809Z,43.53
2018-09-30T04:50:06.696Z,43.43
2018-09-30T04:50:44.818Z,45.13
2018-09-30T04:51:22.645Z,43.07
2018-09-30T04:52:00.509Z,42.77
2018-09-30T04:52:38.393Z,41.47
2018-09-30T04:53:16.464Z,40.37
2018-09-30T04:53:54.435Z,44.97
2018-09-30T04:54:32.452Z,41.20
2018-09-30T04:55:10.327Z,48.67
2018-09-30T04:55:48.178Z,41.47
2018-09-30T04:56:25.997Z,39.43
2018-09-30T04:57:04.013Z,40.73
2018-09-30T04:57:41.905Z,38.43
2018-09-30T04:58:19.800Z,39.80
2018-09-30T04:58:59.049Z,38.60
2018-09-30T04:59:37.088Z,37.77
2018-09-30T05:00:14.998Z,39.80
2018-09-30T05:00:52.771Z,37.50
2018-09-30T05:01:30.637Z,41.90
2018-09-30T05:02:08.569Z,40.30
2018-09-30T05:02:46.827Z,36.97
2018-09-30T05:03:24.819Z,39.37
2018-09-30T05:04:02.706Z,38.60
2018-09-30T05:04:41.155Z,43.13
2018-09-30T05:05:19.953Z,42.33
2018-09-30T05:05:58.807Z,41.97
2018-09-30T05:06:36.848Z,40.00
2018-09-30T05:07:14.727Z,40.10
2018-09-30T05:07:52.515Z,48.37
2018-09-30T05:08:30.908Z,37.97
2018-09-30T05:09:10.662Z,40.33
2018-09-30T05:09:49.940Z,42.13
2018-09-30T05:10:28.719Z,42.57
2018-09-30T05:11:07.727Z,40.33
2018-09-30T05:11:45.627Z,42.20
2018-09-30T05:12:23.474Z,45.10
2018-09-30T05:13:01.280Z,41.73
2018-09-30T05:13:39.124Z,42.40
2018-09-30T05:14:17.138Z,40.07
2018-09-30T05:14:55.104Z,39.37
2018-09-30T05:15:33.898Z,42.73
2018-09-30T05:16:11.916Z,43.30
2018-09-30T05:16:49.792Z,40.53
2018-09-30T05:17:27.632Z,44.03
2018-09-30T05:18:05.904Z,38.40
2018-09-30T05:18:44.787Z,43.77
2018-09-30T05:19:22.564Z,37.37
2018-09-30T05:20:00.580Z,44.00
2018-09-30T05:20:38.571Z,44.33
2018-09-30T05:21:16.429Z,44.87
2018-09-30T05:21:54.227Z,45.17
2018-09-30T05:22:32.094Z,40.57
2018-09-30T05:23:10.112Z,40.90
2018-09-30T05:23:47.946Z,38.57
2018-09-30T05:24:25.882Z,40.13
2018-09-30T05:25:03.792Z,41.60
2018-09-30T05:25:41.756Z,39.63
2018-09-30T05:26:19.780Z,36.13
2018-09-30T05:26:57.680Z,41.07
2018-09-30T05:27:35.600Z,42.43
2018-09-30T05:28:13.410Z,39.07
2018-09-30T05:28:51.341Z,38.07
2018-09-30T05:29:29.236Z,37.37
2018-09-30T05:30:07.957Z,41.27
2018-09-30T05:30:45.758Z,37.63
2018-09-30T05:31:24.501Z,39.40
2018-09-30T05:32:02.379Z,40.93
2018-09-30T05:32:40.480Z,37.57
2018-09-30T05:33:18.448Z,36.90
2018-09-30T05:33:56.505Z,38.97
2018-09-30T05:34:34.750Z,41.97
2018-09-30T05:35:12.613Z,42.30
2018-09-30T05:35:50.799Z,40.17
2018-09-30T05:36:28.733Z,38.20
2018-09-30T05:37:06.645Z,40.13
2018-09-30T05:37:44.630Z,36.73
2018-09-30T05:38:22.536Z,41.10
2018-09-30T05:39:00.483Z,39.40
2018-09-30T05:39:38.425Z,36.67
2018-09-30T05:40:17.084Z,38.40
2018-09-30T05:40:54.960Z,34.97
2018-09-30T05:41:32.756Z,36.20
2018-09-30T05:42:11.009Z,35.20
2018-09-30T05:42:48.849Z,34.93
2018-09-30T05:43:26.971Z,33.70
2018-09-30T05:44:06.755Z,35.47
2018-09-30T05:44:44.759Z,36.07
2018-09-30T05:45:22.822Z,36.17
2018-09-30T05:46:01.772Z,37.73
2018-09-30T05:46:40.131Z,42.90
2018-09-30T05:47:17.972Z,36.87
2018-09-30T05:47:55.874Z,36.20
2018-09-30T05:48:34.691Z,40.20
2018-09-30T05:49:12.700Z,39.17
2018-09-30T05:49:50.692Z,36.63
2018-09-30T05:50:28.518Z,36.43
2018-09-30T05:51:06.424Z,38.67
2018-09-30T05:51:44.311Z,40.10
2018-09-30T05:52:22.603Z,38.33
2018-09-30T05:53:00.482Z,39.53
2018-09-30T05:53:38.401Z,44.67
2018-09-30T05:54:16.901Z,41.02
2018-09-30T05:54:55.677Z,38.60
2018-09-30T05:55:33.790Z,36.53
2018-09-30T05:56:11.675Z,43.93
2018-09-30T05:56:49.671Z,40.40
2018-09-30T05:57:27.668Z,49.50
2018-09-30T05:58:05.591Z,44.33
2018-09-30T05:58:44.386Z,41.90
2018-09-30T05:59:23.147Z,41.70
2018-09-30T06:00:00.970Z,39.50
2018-09-30T06:00:39.984Z,39.93
2018-09-30T06:01:17.968Z,45.20
2018-09-30T06:01:55.754Z,41.37
2018-09-30T06:02:34.668Z,43.17
2018-09-30T06:03:12.441Z,35.53
2018-09-30T06:03:50.489Z,35.20
2018-09-30T06:04:28.638Z,38.30
2018-09-30T06:05:06.437Z,37.30
2018-09-30T06:05:44.546Z,43.20
2018-09-30T06:06:22.916Z,36.70
2018-09-30T06:07:00.746Z,39.33
2018-09-30T06:07:38.672Z,46.27
2018-09-30T06:08:17.279Z,36.75
2018-09-30T06:08:55.176Z,36.90
2018-09-30T06:09:33.182Z,36.87
2018-09-30T06:10:12.285Z,38.07
2018-09-30T06:10:50.214Z,36.87
2018-09-30T06:11:28.046Z,37.93
2018-09-30T06:12:06.952Z,34.83
2018-09-30T06:12:44.791Z,36.90
2018-09-30T06:13:22.757Z,36.27
2018-09-30T06:14:00.732Z,35.77
2018-09-30T06:14:38.654Z,37.13
2018-09-30T06:15:16.662Z,33.80
2018-09-30T06:15:54.772Z,33.10
2018-09-30T06:16:33.503Z,34.17
2018-09-30T06:17:11.313Z,38.30
2018-09-30T06:17:49.190Z,38.10
2018-09-30T06:18:27.070Z,38.30
2018-09-30T06:19:04.972Z,37.27
2018-09-30T06:19:43.747Z,34.17
2018-09-30T06:20:21.818Z,35.93
2018-09-30T06:21:00.041Z,53.53
2018-09-30T06:21:38.070Z,44.57
2018-09-30T06:22:16.633Z,38.33
2018-09-30T06:22:54.665Z,36.27
2018-09-30T06:23:32.844Z,34.57
2018-09-30T06:24:13.758Z,36.83
2018-09-30T06:24:51.768Z,43.00
2018-09-30T06:25:29.723Z,37.17
2018-09-30T06:26:08.345Z,37.70
2018-09-30T06:26:47.124Z,36.33
2018-09-30T06:27:28.300Z,40.20
2018-09-30T06:28:15.597Z,38.37
2018-09-30T06:28:53.761Z,36.33
2018-09-30T06:29:31.638Z,37.20
2018-09-30T06:30:09.758Z,36.10
2018-09-30T06:30:47.623Z,43.87
2018-09-30T06:31:26.496Z,37.20
2018-09-30T06:32:04.376Z,38.87
2018-09-30T06:32:42.265Z,42.90
2018-09-30T06:33:20.186Z,41.23
2018-09-30T06:33:58.311Z,36.50
2018-09-30T06:34:36.416Z,38.20
2018-09-30T06:35:14.841Z,35.77
2018-09-30T06:35:52.721Z,36.10
2018-09-30T06:36:30.683Z,43.13
2018-09-30T06:37:08.625Z,38.60
2018-09-30T06:37:46.469Z,38.50
2018-09-30T06:38:24.530Z,42.33
2018-09-30T06:39:02.325Z,37.17
2018-09-30T06:39:40.401Z,35.80
2018-09-30T06:40:18.236Z,37.77
2018-09-30T06:40:56.290Z,37.10
2018-09-30T06:41:34.174Z,43.00
2018-09-30T06:42:12.033Z,38.83
2018-09-30T06:42:49.861Z,38.33
2018-09-30T06:43:27.684Z,39.00
2018-09-30T06:44:05.641Z,38.70
2018-09-30T06:44:43.758Z,40.23
2018-09-30T06:45:21.681Z,40.33
2018-09-30T06:45:59.501Z,39.07
2018-09-30T06:46:37.397Z,40.03
2018-09-30T06:47:15.226Z,36.33
2018-09-30T06:47:53.271Z,38.97
2018-09-30T06:48:31.108Z,36.50
2018-09-30T06:49:08.997Z,34.70
2018-09-30T06:49:46.858Z,38.67
2018-09-30T06:50:24.832Z,42.10
2018-09-30T06:51:02.886Z,49.07
2018-09-30T06:51:40.919Z,38.73
2018-09-30T06:52:19.582Z,45.73
2018-09-30T06:52:57.360Z,39.57
2018-09-30T06:53:35.218Z,36.57
2018-09-30T06:54:14.097Z,46.43
2018-09-30T06:54:52.061Z,37.47
2018-09-30T06:55:30.158Z,40.27
2018-09-30T06:56:08.032Z,36.20
2018-09-30T06:56:46.108Z,37.30
2018-09-30T06:57:24.194Z,36.63
2018-09-30T06:58:02.188Z,35.47
2018-09-30T06:58:40.034Z,34.77
2018-09-30T06:59:18.120Z,34.87
2018-09-30T06:59:55.933Z,39.03
2018-09-30T07:00:33.821Z,47.93
2018-09-30T07:01:11.863Z,34.67
2018-09-30T07:01:49.692Z,35.37
2018-09-30T07:02:27.686Z,51.40
2018-09-30T07:03:05.795Z,44.53
2018-09-30T07:03:43.634Z,37.10
2018-09-30T07:04:21.473Z,43.63
2018-09-30T07:04:59.384Z,32.87
2018-09-30T07:05:39.048Z,33.40
2018-09-30T07:06:17.351Z,31.30
2018-09-30T07:06:55.243Z,28.43
2018-09-30T07:07:33.110Z,29.80
2018-09-30T07:08:11.578Z,29.63
2018-09-30T07:08:49.421Z,31.20
2018-09-30T07:09:27.265Z,30.73
2018-09-30T07:10:05.804Z,30.40
2018-09-30T07:10:43.686Z,29.83
2018-09-30T07:11:22.817Z,31.90
2018-09-30T07:12:00.775Z,32.67
2018-09-30T07:12:39.419Z,29.70
2018-09-30T07:13:17.350Z,31.30
2018-09-30T07:13:56.498Z,32.27
2018-09-30T07:14:34.554Z,31.13
2018-09-30T07:15:12.713Z,32.87
2018-09-30T07:15:50.605Z,29.90
2018-09-30T07:16:28.587Z,29.17
2018-09-30T07:17:06.477Z,31.17
2018-09-30T07:17:44.650Z,30.87
2018-09-30T07:18:22.624Z,31.60
2018-09-30T07:19:00.587Z,30.97
2018-09-30T07:19:38.407Z,38.30
2018-09-30T07:20:17.959Z,33.95
2018-09-30T07:20:55.909Z,36.70
2018-09-30T07:21:35.238Z,38.10
2018-09-30T07:22:13.104Z,36.80
2018-09-30T07:22:51.349Z,37.50
2018-09-30T07:23:29.206Z,39.57
2018-09-30T07:24:07.028Z,46.40
2018-09-30T07:24:45.018Z,37.83
2018-09-30T07:25:23.004Z,41.30
2018-09-30T07:26:00.994Z,40.67
2018-09-30T07:26:38.912Z,39.90
2018-09-30T07:27:17.050Z,39.63
2018-09-30T07:27:54.875Z,40.50
2018-09-30T07:28:32.824Z,38.40
2018-09-30T07:29:11.018Z,45.20
2018-09-30T07:29:49.073Z,38.83
2018-09-30T07:30:27.889Z,40.40
2018-09-30T07:31:05.892Z,39.00
2018-09-30T07:31:43.660Z,39.50
2018-09-30T07:32:21.654Z,38.63
2018-09-30T07:33:02.899Z,38.73
2018-09-30T07:33:41.267Z,38.67
2018-09-30T07:34:19.136Z,38.43
2018-09-30T07:34:57.867Z,38.37
2018-09-30T07:35:35.709Z,39.57
2018-09-30T07:36:13.723Z,41.43
2018-09-30T07:36:51.580Z,39.27
2018-09-30T07:37:29.439Z,40.27
2018-09-30T07:38:07.215Z,39.17
2018-09-30T07:38:45.165Z,40.10
2018-09-30T07:39:23.070Z,41.73
2018-09-30T07:40:01.160Z,39.47
2018-09-30T07:40:38.978Z,39.93
2018-09-30T07:41:16.811Z,44.30
2018-09-30T07:41:55.467Z,38.63
2018-09-30T07:42:33.394Z,42.47
2018-09-30T07:43:11.187Z,45.67
2018-09-30T07:43:49.022Z,41.97
2018-09-30T07:44:26.876Z,41.77
2018-09-30T07:45:04.812Z,49.23
2018-09-30T07:45:42.666Z,46.53
2018-09-30T07:46:20.589Z,48.73
2018-09-30T07:46:58.430Z,38.80
2018-09-30T07:47:36.363Z,43.73
2018-09-30T07:48:14.440Z,38.63
2018-09-30T07:48:53.454Z,38.33
2018-09-30T07:49:32.756Z,37.67
2018-09-30T07:50:10.694Z,41.97
2018-09-30T07:50:48.569Z,43.57
2018-09-30T07:51:26.467Z,43.80
2018-09-30T07:52:04.289Z,38.40
2018-09-30T07:52:43.618Z,38.67
2018-09-30T07:53:23.037Z,40.23
2018-09-30T07:54:00.897Z,39.57
2018-09-30T07:54:39.266Z,41.17
2018-09-30T07:55:17.147Z,41.00
2018-09-30T07:55:55.266Z,42.47
2018-09-30T07:56:33.289Z,40.90
2018-09-30T07:57:11.196Z,41.13
2018-09-30T07:57:50.183Z,41.33
2018-09-30T07:58:28.083Z,40.80
2018-09-30T07:59:06.036Z,43.20
2018-09-30T07:59:43.819Z,39.27
2018-09-30T08:00:22.451Z,42.37
2018-09-30T08:01:01.359Z,51.63
2018-09-30T08:01:39.186Z,40.47
2018-09-30T08:02:18.144Z,39.53
2018-09-30T08:02:56.011Z,41.57
2018-09-30T08:03:33.919Z,43.93
2018-09-30T08:04:11.823Z,40.63
2018-09-30T08:04:49.657Z,40.00
2018-09-30T08:05:27.563Z,40.90
2018-09-30T08:06:06.106Z,53.50
2018-09-30T08:06:45.048Z,44.50
2018-09-30T08:07:23.001Z,62.63
2018-09-30T08:08:03.121Z,78.90
2018-09-30T08:08:42.897Z,41.10
2018-09-30T08:09:22.713Z,48.37
2018-09-30T08:10:01.126Z,58.27
2018-09-30T08:10:38.963Z,40.13
2018-09-30T08:11:16.848Z,43.77
2018-09-30T08:11:54.661Z,42.40
2018-09-30T08:12:32.775Z,45.10
2018-09-30T08:13:10.740Z,42.83
2018-09-30T08:13:48.546Z,40.27
2018-09-30T08:14:26.482Z,42.37
2018-09-30T08:15:04.809Z,39.57
2018-09-30T08:15:42.757Z,43.10